Prince Rupert, Canada
Current Conditions -  °F | °C
As of 11:21 PM on Thursday 18 Dec 2014 (Local Time) from CYPR Reporting Station
Light Rain Light Rain  
Wind Chill: 35°   Ceiling: 2800
Heat Index: 41°   Visibility: 5mi
Dew Point: 39°   Wind: 9mph
Humidity: 93%   Direction: 160°SSE
Pressure: 29.36"   Gusts: NA
Location:  54.31°N, 130.33°W
Report Text: CYPR 190721Z AUTO 16008KT 130V200 5SM -RA BR FEW022 OVC028 05/04 A2936 RMK SLP944
Loading
Personal Weather Stations






























Interactive Weather Map New forecast layout! Learn more

10-Day Weather Forecast

Advertisements
Track Severe Weather on mobile